map of JFN home
JFN - Airport
Location
City:  Ashtabula, Ohio, United States
Name:Northeast Ohio Regional
ICAO:KHZY
IATA:JFN
FAA LID:HZY

Details
Type:Airport (Airfield)
Use:Public/Civil
Latitude:4146'40"N (41.777778)
Longitude:8041'48"W (-80.696777)
Datum:WGS 1984
Elevation:926 ft (282 m)
Variation:9.13W (WMM2015 magnetic declination)
-0.01 annual change
Runways:1
Longest:5900 × 100 ft (1798 × 30.5 m), paved

Time
Time Zone:UTC-5 (DST-4)
Local Time:

Weather
METAR:KHZY 181753Z AUTO 00000KT 5SM BR BKN036 OVC047 02/01 A3020 RMK AO2 UPB1657E07B23E44RAB09E23 SLP235 P0000 60000 T00170011 10022 20006 58015

Related Locations
Nearby:
Farthest:YAUG: 11436 mi / 18404 km
Augusta [Augusta Airport], WA, AU

Find:

   beyond  
but within

Other Information
Maps:
NOTAMs:
Links:
Sources:

  
  • flag of United States
  • flag of Ohio
  

Sectional Chart

Flight Planning
at skyvector.com

Satellite Image

Google Maps Satellite view

 

Copyright © 2004-2018 Karl L. Swartz. All rights reserved.
The Great Circle Mapper name and logo are trademarks of the Great Circle Mapper.
All other trademarks mentioned herein belong to their respective owners.
Please see credits for attibutions and further copyright information.

  Follow gcmap on Facebook Follow gcmap on Twitter Follow gcmap on Google+ GCmap on LinkedIn

hCard Microformat

Geo Microformat